LGMK

Mykonos Island National Airport

Airport
ICAO code
LGMK
IATA Code
JMK
Summary
ICAO Region
EUR
ICAO Territory
Location

Mykonos, Cyclades

Serving
Mykonos
Elevation
405 ft
Coordinates
37° 26' 6" N , 25° 20' 50" E
KCC
Metar
LGMK 201820Z 01016KT CAVOK 29/18 Q1006

Mykonos Airport is the international airport of the Greek island of Mykonos.

Climatology

Warm mediterranean climate (Köppen climate classification Csa)

Runways

Designator Length Width Surface Rops
16/34 1903 30 ASP Yes/Yes

Airport map

Aerial View

Airport accidents

SKYbrary Partners:

Safety knowledge contributed by: